createdAt,value
2022-07-30T00:02:14.658Z,4.80
2022-07-30T00:05:22.913Z,4.70
2022-07-30T00:08:31.772Z,4.90
2022-07-30T00:11:40.071Z,4.90
2022-07-30T00:14:47.799Z,4.70
2022-07-30T00:17:55.691Z,4.80
2022-07-30T00:21:03.886Z,4.80
2022-07-30T00:24:12.747Z,5.10
2022-07-30T00:27:20.795Z,4.40
2022-07-30T00:30:28.917Z,5.10
2022-07-30T00:33:36.956Z,5.00
2022-07-30T00:36:45.121Z,4.90
2022-07-30T00:39:53.130Z,4.70
2022-07-30T00:43:01.414Z,4.90
2022-07-30T00:46:09.531Z,5.00
2022-07-30T00:49:17.836Z,5.10
2022-07-30T00:52:27.041Z,4.90
2022-07-30T00:55:35.200Z,4.80
2022-07-30T00:58:43.152Z,5.00
2022-07-30T01:01:51.645Z,4.90
2022-07-30T01:05:02.425Z,5.00
2022-07-30T01:08:10.614Z,4.90
2022-07-30T01:11:19.202Z,5.20
2022-07-30T01:14:28.340Z,4.60
2022-07-30T01:17:36.664Z,4.70
2022-07-30T01:20:54.673Z,4.40
2022-07-30T01:24:21.993Z,4.60
2022-07-30T01:27:34.121Z,4.80
2022-07-30T01:30:46.629Z,4.60
2022-07-30T01:34:01.208Z,4.90
2022-07-30T01:37:11.166Z,4.80
2022-07-30T01:40:19.787Z,4.80
2022-07-30T01:43:29.844Z,5.10
2022-07-30T01:46:38.707Z,5.30
2022-07-30T01:49:47.967Z,5.00
2022-07-30T01:52:58.787Z,5.30
2022-07-30T01:56:10.611Z,5.20
2022-07-30T01:59:24.375Z,5.20
2022-07-30T02:02:32.363Z,5.40
2022-07-30T02:05:44.715Z,5.30
2022-07-30T02:08:59.379Z,4.80
2022-07-30T02:12:30.816Z,5.20
2022-07-30T02:15:45.354Z,5.60
2022-07-30T02:19:06.976Z,5.50
2022-07-30T02:22:20.639Z,6.00
2022-07-30T02:25:36.288Z,5.40
2022-07-30T02:28:47.562Z,5.20
2022-07-30T02:31:59.538Z,5.30
2022-07-30T02:35:18.506Z,5.70
2022-07-30T02:38:28.775Z,5.10
2022-07-30T02:41:40.426Z,5.10
2022-07-30T02:44:51.461Z,5.10
2022-07-30T02:48:03.938Z,5.40
2022-07-30T02:51:16.672Z,5.40
2022-07-30T02:54:26.536Z,5.50
2022-07-30T02:57:37.663Z,5.30
2022-07-30T03:00:54.282Z,5.30
2022-07-30T03:04:04.339Z,5.60
2022-07-30T03:07:14.335Z,5.80
2022-07-30T03:10:23.574Z,5.30
2022-07-30T03:13:31.630Z,5.60
2022-07-30T03:16:46.003Z,5.50
2022-07-30T03:19:56.362Z,5.60
2022-07-30T03:23:08.390Z,5.70
2022-07-30T03:26:21.188Z,5.40
2022-07-30T03:29:31.284Z,5.30
2022-07-30T03:32:40.885Z,5.60
2022-07-30T03:35:55.582Z,5.60
2022-07-30T03:39:05.293Z,5.50
2022-07-30T03:42:13.727Z,5.60
2022-07-30T03:45:22.394Z,5.20
2022-07-30T03:48:30.936Z,5.50
2022-07-30T03:51:39.860Z,5.60
2022-07-30T03:54:48.978Z,5.50
2022-07-30T03:57:56.843Z,5.30
2022-07-30T04:01:05.087Z,5.20
2022-07-30T04:04:14.491Z,4.70
2022-07-30T04:07:23.022Z,5.20
2022-07-30T04:10:31.068Z,5.10
2022-07-30T04:13:38.964Z,5.50
2022-07-30T04:16:52.095Z,5.30
2022-07-30T04:20:07.962Z,5.20
2022-07-30T04:23:17.257Z,4.60
2022-07-30T04:26:25.881Z,5.00
2022-07-30T04:29:33.813Z,4.90
2022-07-30T04:32:43.004Z,4.90
2022-07-30T04:35:52.386Z,4.70
2022-07-30T04:39:01.561Z,5.00
2022-07-30T04:42:09.909Z,5.00
2022-07-30T04:45:20.362Z,4.70
2022-07-30T04:48:29.258Z,4.70
2022-07-30T04:51:40.438Z,4.80
2022-07-30T04:54:54.522Z,4.70
2022-07-30T04:58:05.347Z,4.70
2022-07-30T05:01:18.296Z,4.70
2022-07-30T05:04:28.220Z,4.50
2022-07-30T05:07:36.935Z,4.80
2022-07-30T05:10:46.040Z,5.30
2022-07-30T05:13:54.598Z,5.20
2022-07-30T05:17:03.015Z,4.70
2022-07-30T05:20:13.345Z,5.30
2022-07-30T05:23:21.211Z,5.20
2022-07-30T05:26:29.354Z,4.70
2022-07-30T05:29:37.375Z,4.70
2022-07-30T05:32:49.809Z,5.30
2022-07-30T05:36:00.372Z,4.70
2022-07-30T05:39:08.758Z,5.00
2022-07-30T05:42:16.783Z,4.80
2022-07-30T05:45:24.764Z,4.90
2022-07-30T05:48:35.957Z,5.00
2022-07-30T05:51:43.930Z,5.00
2022-07-30T05:54:52.698Z,4.90
2022-07-30T05:58:00.831Z,5.10
2022-07-30T06:01:08.892Z,5.10
2022-07-30T06:04:17.252Z,4.80
2022-07-30T06:07:25.434Z,4.80
2022-07-30T06:10:34.112Z,5.10
2022-07-30T06:13:41.861Z,5.00
2022-07-30T06:16:49.712Z,5.10
2022-07-30T06:19:57.587Z,4.80
2022-07-30T06:23:05.486Z,5.20
2022-07-30T06:26:14.665Z,5.10
2022-07-30T06:29:22.778Z,4.70
2022-07-30T06:32:31.136Z,5.30
2022-07-30T06:35:39.104Z,5.70
2022-07-30T06:38:46.810Z,5.40
2022-07-30T06:41:55.058Z,5.10
2022-07-30T06:45:02.865Z,5.60
2022-07-30T06:48:11.855Z,5.40
2022-07-30T06:51:19.748Z,5.00
2022-07-30T06:54:27.597Z,5.00
2022-07-30T06:57:42.332Z,5.30
2022-07-30T07:00:50.793Z,5.20
2022-07-30T07:03:59.003Z,5.20
2022-07-30T07:07:12.534Z,4.80
2022-07-30T07:10:21.715Z,5.60
2022-07-30T07:13:29.633Z,5.40
2022-07-30T07:16:38.104Z,4.70
2022-07-30T07:20:00.861Z,5.20
2022-07-30T07:23:12.365Z,5.40
2022-07-30T07:26:21.352Z,5.60
2022-07-30T07:29:29.132Z,5.40
2022-07-30T07:32:37.891Z,4.90
2022-07-30T07:35:49.866Z,4.80
2022-07-30T07:38:58.213Z,5.90
2022-07-30T07:42:06.467Z,5.40
2022-07-30T07:45:15.419Z,5.90
2022-07-30T07:48:23.811Z,6.00
2022-07-30T07:51:46.701Z,6.10
2022-07-30T07:54:55.756Z,6.50
2022-07-30T07:58:04.168Z,6.30
2022-07-30T08:01:12.152Z,6.90
2022-07-30T08:04:20.135Z,6.60
2022-07-30T08:07:28.081Z,5.90
2022-07-30T08:10:36.614Z,6.80
2022-07-30T08:13:51.614Z,6.50
2022-07-30T08:17:01.345Z,6.60
2022-07-30T08:20:13.021Z,6.70
2022-07-30T08:23:22.504Z,7.20
2022-07-30T08:26:30.456Z,7.60
2022-07-30T08:29:39.814Z,7.20
2022-07-30T08:32:47.756Z,9.30
2022-07-30T08:36:02.846Z,7.70
2022-07-30T08:39:12.064Z,7.90
2022-07-30T08:42:20.767Z,7.00
2022-07-30T08:45:34.745Z,7.50
2022-07-30T08:48:44.393Z,6.90
2022-07-30T08:51:53.866Z,6.90
2022-07-30T08:55:04.429Z,7.20
2022-07-30T08:58:29.380Z,7.30
2022-07-30T09:01:37.295Z,7.40
2022-07-30T09:04:45.155Z,7.60
2022-07-30T09:07:53.120Z,7.50
2022-07-30T09:11:01.402Z,7.30
2022-07-30T09:14:17.730Z,7.30
2022-07-30T09:17:28.862Z,7.00
2022-07-30T09:20:39.885Z,7.00
2022-07-30T09:24:01.293Z,7.60
2022-07-30T09:27:10.268Z,7.60
2022-07-30T09:30:19.158Z,8.60
2022-07-30T09:33:40.347Z,9.00
2022-07-30T09:36:49.159Z,8.60
2022-07-30T09:39:59.329Z,9.20
2022-07-30T09:43:10.870Z,9.80
2022-07-30T09:46:19.487Z,10.10
2022-07-30T09:49:29.770Z,11.20
2022-07-30T09:52:44.238Z,10.30
2022-07-30T09:55:58.367Z,11.10
2022-07-30T09:59:07.129Z,8.50
2022-07-30T10:02:34.063Z,7.90
2022-07-30T10:05:50.248Z,8.60
2022-07-30T10:09:00.910Z,10.00
2022-07-30T10:12:26.833Z,7.60
2022-07-30T10:15:37.838Z,7.40
2022-07-30T10:18:48.089Z,7.00
2022-07-30T10:21:58.200Z,6.80
2022-07-30T10:25:08.294Z,7.30
2022-07-30T10:28:17.205Z,7.20
2022-07-30T10:31:48.720Z,7.80
2022-07-30T10:34:55.948Z,7.60
2022-07-30T10:38:04.883Z,8.70
2022-07-30T10:41:44.313Z,8.00
2022-07-30T10:45:23.095Z,8.00
2022-07-30T10:48:33.978Z,7.80
2022-07-30T10:51:56.244Z,8.60
2022-07-30T10:55:13.447Z,8.70
2022-07-30T10:58:24.022Z,8.80
2022-07-30T11:02:12.050Z,9.00
2022-07-30T11:05:45.108Z,7.90
2022-07-30T11:08:57.375Z,8.30
2022-07-30T11:12:07.511Z,8.60
2022-07-30T11:15:19.787Z,8.80
2022-07-30T11:18:29.273Z,8.20
2022-07-30T11:21:38.297Z,7.60
2022-07-30T11:24:50.142Z,7.60
2022-07-30T11:28:00.832Z,7.10
2022-07-30T11:31:56.299Z,7.10
2022-07-30T11:35:24.442Z,6.90
2022-07-30T11:39:03.647Z,6.40
2022-07-30T11:42:33.255Z,5.90
2022-07-30T11:45:41.585Z,5.40
2022-07-30T11:49:05.295Z,6.40
2022-07-30T11:52:14.562Z,5.60
2022-07-30T11:55:30.651Z,6.10
2022-07-30T11:58:41.242Z,4.60
2022-07-30T12:01:57.116Z,4.10
2022-07-30T12:05:05.728Z,4.50
2022-07-30T12:08:36.007Z,4.40
2022-07-30T12:11:43.142Z,3.50
2022-07-30T12:14:51.182Z,3.50
2022-07-30T12:18:24.185Z,3.80
2022-07-30T12:21:29.385Z,3.70
2022-07-30T12:24:37.874Z,4.10
2022-07-30T12:27:52.376Z,4.00
2022-07-30T12:31:02.929Z,3.70
2022-07-30T12:34:24.803Z,3.30
2022-07-30T12:37:32.875Z,3.50
2022-07-30T12:40:57.634Z,3.80
2022-07-30T12:44:05.777Z,2.50
2022-07-30T12:47:25.739Z,2.80
2022-07-30T12:50:33.850Z,2.90
2022-07-30T12:53:43.608Z,2.40
2022-07-30T12:57:06.201Z,2.50
2022-07-30T13:00:16.604Z,2.50
2022-07-30T13:03:29.509Z,2.90
2022-07-30T13:06:38.149Z,3.10
2022-07-30T13:09:46.607Z,2.90
2022-07-30T13:12:55.219Z,2.90
2022-07-30T13:16:09.477Z,2.80
2022-07-30T13:19:17.548Z,2.60
2022-07-30T13:22:26.068Z,2.50
2022-07-30T13:25:40.448Z,2.60
2022-07-30T13:28:49.428Z,2.60
2022-07-30T13:31:57.122Z,2.30
2022-07-30T13:35:05.577Z,1.80
2022-07-30T13:38:13.717Z,1.60
2022-07-30T13:41:21.610Z,1.70
2022-07-30T13:44:29.491Z,1.70
2022-07-30T13:47:38.175Z,1.90
2022-07-30T13:50:46.599Z,2.20
2022-07-30T13:53:54.737Z,2.10
2022-07-30T13:57:03.016Z,2.90
2022-07-30T14:00:14.430Z,2.80
2022-07-30T14:03:22.295Z,3.30
2022-07-30T14:06:30.397Z,3.50
2022-07-30T14:09:47.000Z,3.80
2022-07-30T14:12:58.364Z,3.90
2022-07-30T14:16:22.768Z,3.80
2022-07-30T14:19:34.608Z,3.50
2022-07-30T14:22:42.503Z,3.50
2022-07-30T14:25:50.699Z,3.40
2022-07-30T14:28:58.508Z,3.00
2022-07-30T14:32:07.228Z,3.10
2022-07-30T14:35:15.265Z,2.80
2022-07-30T14:38:23.691Z,2.70
2022-07-30T14:41:34.976Z,2.60
2022-07-30T14:44:43.155Z,3.00
2022-07-30T14:47:50.959Z,3.10
2022-07-30T14:51:16.020Z,3.30
2022-07-30T14:54:27.963Z,3.60
2022-07-30T14:57:36.673Z,3.40
2022-07-30T15:00:48.496Z,2.80
2022-07-30T15:03:57.202Z,3.10
2022-07-30T15:07:05.036Z,3.00
2022-07-30T15:10:15.878Z,2.90
2022-07-30T15:13:23.960Z,2.70
2022-07-30T15:16:35.320Z,2.90
2022-07-30T15:19:49.265Z,2.70
2022-07-30T15:22:59.449Z,2.90
2022-07-30T15:26:07.551Z,2.60
2022-07-30T15:29:15.523Z,2.90
2022-07-30T15:32:23.380Z,2.80
2022-07-30T15:35:31.836Z,3.00
2022-07-30T15:38:40.178Z,2.70
2022-07-30T15:41:48.186Z,2.70
2022-07-30T15:45:16.854Z,2.90
2022-07-30T15:48:27.368Z,2.80
2022-07-30T15:51:36.221Z,2.50
2022-07-30T15:54:44.470Z,2.60
2022-07-30T15:57:52.585Z,2.70
2022-07-30T16:01:00.679Z,2.30
2022-07-30T16:04:09.224Z,2.30
2022-07-30T16:07:28.145Z,2.40
2022-07-30T16:10:36.051Z,2.40
2022-07-30T16:13:44.506Z,2.40
2022-07-30T16:16:52.879Z,2.50
2022-07-30T16:20:00.822Z,2.70
2022-07-30T16:23:13.355Z,2.40
2022-07-30T16:26:24.373Z,2.50
2022-07-30T16:29:32.398Z,2.50
2022-07-30T16:32:40.369Z,2.40
2022-07-30T16:35:49.180Z,2.70
2022-07-30T16:38:58.546Z,2.70
2022-07-30T16:42:06.679Z,2.60
2022-07-30T16:45:15.920Z,3.00
2022-07-30T16:48:23.740Z,3.20
2022-07-30T16:51:31.840Z,2.90
2022-07-30T16:54:40.072Z,2.70
2022-07-30T16:57:47.963Z,2.60
2022-07-30T17:00:56.534Z,2.70
2022-07-30T17:04:04.504Z,2.90
2022-07-30T17:07:13.263Z,2.90
2022-07-30T17:10:25.455Z,3.10
2022-07-30T17:13:34.405Z,2.80
2022-07-30T17:16:42.548Z,3.10
2022-07-30T17:19:50.393Z,3.00
2022-07-30T17:22:58.625Z,3.00
2022-07-30T17:26:07.762Z,4.10
2022-07-30T17:29:19.005Z,4.20
2022-07-30T17:32:27.185Z,3.30
2022-07-30T17:35:35.179Z,3.80
2022-07-30T17:38:42.952Z,3.50
2022-07-30T17:41:55.437Z,3.40
2022-07-30T17:45:08.416Z,3.20
2022-07-30T17:51:22.617Z,3.20
2022-07-30T17:54:30.773Z,3.50
2022-07-30T17:57:38.856Z,4.00
2022-07-30T18:00:46.958Z,3.70
2022-07-30T18:03:54.845Z,3.90
2022-07-30T18:07:03.079Z,3.40
2022-07-30T18:10:13.238Z,3.60
2022-07-30T18:13:27.098Z,3.60
2022-07-30T18:16:35.583Z,3.30
2022-07-30T18:19:43.423Z,2.90
2022-07-30T18:22:51.474Z,3.40
2022-07-30T18:26:00.070Z,3.10
2022-07-30T18:29:13.767Z,3.30
2022-07-30T18:32:23.628Z,3.30
2022-07-30T18:38:37.786Z,3.10
2022-07-30T18:41:45.737Z,3.20
2022-07-30T18:44:53.698Z,3.60
2022-07-30T18:48:01.687Z,3.20
2022-07-30T18:51:13.910Z,3.50
2022-07-30T18:54:22.360Z,3.60
2022-07-30T18:57:30.318Z,3.70
2022-07-30T19:00:39.796Z,3.70
2022-07-30T19:03:48.073Z,4.00
2022-07-30T19:06:56.143Z,4.10
2022-07-30T19:10:06.518Z,4.30
2022-07-30T19:13:14.660Z,4.30
2022-07-30T19:16:22.861Z,4.40
2022-07-30T19:19:32.017Z,4.50
2022-07-30T19:22:40.866Z,4.40
2022-07-30T19:25:48.953Z,4.30
2022-07-30T19:28:56.962Z,4.50
2022-07-30T19:32:05.275Z,4.40
2022-07-30T19:35:14.496Z,4.50
2022-07-30T19:38:23.923Z,4.60
2022-07-30T19:41:37.996Z,4.40
2022-07-30T19:44:46.097Z,4.70
2022-07-30T19:47:54.325Z,5.10
2022-07-30T19:51:04.455Z,4.80
2022-07-30T19:54:12.486Z,4.90
2022-07-30T19:57:21.960Z,5.20
2022-07-30T20:00:29.808Z,5.00
2022-07-30T20:03:38.990Z,5.30
2022-07-30T20:06:48.691Z,5.10
2022-07-30T20:13:03.531Z,5.10
2022-07-30T20:16:14.571Z,5.40
2022-07-30T20:19:22.594Z,5.00
2022-07-30T20:22:30.564Z,5.30
2022-07-30T20:25:39.953Z,5.60
2022-07-30T20:28:52.479Z,5.60
2022-07-30T20:32:00.741Z,5.40
2022-07-30T20:35:10.505Z,5.60
2022-07-30T20:38:18.264Z,6.00
2022-07-30T20:41:29.864Z,6.20
2022-07-30T20:44:38.668Z,5.70
2022-07-30T20:47:47.055Z,6.00
2022-07-30T20:50:55.997Z,5.70
2022-07-30T20:54:04.820Z,6.00
2022-07-30T20:57:15.661Z,5.90
2022-07-30T21:00:27.997Z,6.30
2022-07-30T21:03:37.749Z,6.40
2022-07-30T21:06:47.613Z,6.10
2022-07-30T21:09:57.410Z,6.70
2022-07-30T21:13:07.594Z,6.10
2022-07-30T21:16:16.829Z,6.60
2022-07-30T21:19:24.732Z,6.10
2022-07-30T21:22:37.091Z,5.70
2022-07-30T21:26:00.493Z,6.10
2022-07-30T21:29:11.488Z,6.50
2022-07-30T21:32:20.397Z,6.20
2022-07-30T21:35:34.015Z,6.10
2022-07-30T21:38:42.656Z,6.90
2022-07-30T21:41:50.968Z,6.80
2022-07-30T21:44:59.246Z,6.40
2022-07-30T21:48:10.862Z,6.40
2022-07-30T21:51:19.236Z,7.10
2022-07-30T21:54:29.076Z,6.80
2022-07-30T21:57:54.999Z,7.00
2022-07-30T22:01:17.875Z,6.70
2022-07-30T22:04:27.520Z,7.30
2022-07-30T22:07:35.527Z,6.60
2022-07-30T22:10:46.278Z,6.70
2022-07-30T22:13:54.410Z,6.70
2022-07-30T22:17:04.437Z,6.60
2022-07-30T22:20:14.783Z,6.50
2022-07-30T22:23:23.572Z,6.20
2022-07-30T22:26:33.076Z,6.20
2022-07-30T22:29:41.752Z,6.00
2022-07-30T22:32:51.113Z,6.10
2022-07-30T22:36:00.156Z,6.20
2022-07-30T22:39:08.919Z,6.50
2022-07-30T22:42:17.102Z,6.10
2022-07-30T22:45:47.425Z,5.70
2022-07-30T22:48:52.998Z,6.40
2022-07-30T22:52:05.089Z,6.20
2022-07-30T22:55:29.630Z,6.00
2022-07-30T22:58:37.906Z,6.50
2022-07-30T23:01:45.841Z,5.50
2022-07-30T23:04:56.249Z,5.90
2022-07-30T23:08:04.425Z,5.90
2022-07-30T23:11:12.362Z,5.20
2022-07-30T23:14:21.078Z,5.10
2022-07-30T23:17:29.170Z,5.30
2022-07-30T23:20:37.342Z,5.60
2022-07-30T23:23:45.653Z,5.90
2022-07-30T23:26:53.461Z,5.70
2022-07-30T23:30:01.410Z,5.30
2022-07-30T23:33:09.335Z,5.80
2022-07-30T23:36:17.344Z,5.40
2022-07-30T23:39:26.522Z,6.00
2022-07-30T23:42:34.533Z,5.90
2022-07-30T23:45:42.501Z,6.00
2022-07-30T23:48:50.419Z,6.00
2022-07-30T23:51:58.277Z,6.10
2022-07-30T23:55:06.967Z,6.90
2022-07-30T23:58:14.953Z,6.60
